Rushville, Nebraska
Current Conditions -  °F | °C
As of 2:52 AM on Friday 19 Dec 2014 (Local Time) from KIEN Reporting Station
Clear Clear  
Wind Chill: 19°   Ceiling: Unl
Heat Index: 27°   Visibility: 10mi
Dew Point: 17°   Wind: 7mph
Humidity: 66%   Direction: 240°WSW
Pressure: 30.03"   Gusts: NA
Location:  42.72°N, 102.46°W
Report Text: KIEN 190952Z AUTO 24006KT 10SM CLR M03/M08 A3003 RMK AO2 SLP194 T10281083
Loading
Personal Weather Stations






























Interactive Weather Map New forecast layout! Learn more

10-Day Weather Forecast

Advertisements
Track Severe Weather on mobile